createdAt,value
2023-03-16T00:00:24.963Z,101058.59
2023-03-16T00:02:53.173Z,101051.50
2023-03-16T00:05:21.181Z,101032.47
2023-03-16T00:07:50.181Z,101026.09
2023-03-16T00:10:18.049Z,101019.97
2023-03-16T00:12:45.681Z,101013.28
2023-03-16T00:15:14.211Z,101004.31
2023-03-16T00:17:41.878Z,101002.81
2023-03-16T00:20:12.273Z,101004.47
2023-03-16T00:22:39.967Z,100990.03
2023-03-16T00:25:10.410Z,100982.81
2023-03-16T00:27:38.138Z,100969.06
2023-03-16T00:30:06.726Z,100963.63
2023-03-16T00:32:36.660Z,100957.63
2023-03-16T00:35:09.274Z,100944.44
2023-03-16T00:37:39.387Z,100937.25
2023-03-16T00:40:11.490Z,100932.59
2023-03-16T00:42:40.358Z,100935.03
2023-03-16T00:45:08.517Z,100924.97
2023-03-16T00:47:36.734Z,100924.84
2023-03-16T00:50:04.713Z,100918.72
2023-03-16T00:52:32.436Z,100898.84
2023-03-16T00:55:00.106Z,100890.16
2023-03-16T00:57:30.166Z,100883.88
2023-03-16T00:59:58.049Z,100869.19
2023-03-16T01:02:27.543Z,100859.38
2023-03-16T01:04:55.463Z,100853.84
2023-03-16T01:07:23.518Z,100856.25
2023-03-16T01:09:51.249Z,100849.88
2023-03-16T01:12:20.597Z,100841.97
2023-03-16T01:14:49.813Z,100817.50
2023-03-16T01:17:18.549Z,100816.81
2023-03-16T01:19:46.987Z,100819.97
2023-03-16T01:22:15.702Z,100814.63
2023-03-16T01:24:45.201Z,100800.78
2023-03-16T01:27:13.734Z,100798.72
2023-03-16T01:29:43.583Z,100789.19
2023-03-16T01:32:13.296Z,100786.88
2023-03-16T01:34:41.456Z,100778.44
2023-03-16T01:37:09.151Z,100766.06
2023-03-16T01:39:36.774Z,100763.72
2023-03-16T01:42:04.725Z,100763.00
2023-03-16T01:44:51.805Z,100750.81
2023-03-16T01:47:21.055Z,100734.22
2023-03-16T01:49:48.822Z,100732.16
2023-03-16T01:52:22.375Z,100722.50
2023-03-16T01:54:53.147Z,100706.31
2023-03-16T01:57:23.526Z,100704.41
2023-03-16T01:59:55.988Z,100696.38
2023-03-16T02:02:28.589Z,100690.66
2023-03-16T02:05:02.966Z,100693.38
2023-03-16T02:07:35.616Z,100682.78
2023-03-16T02:10:05.332Z,100676.66
2023-03-16T02:12:33.884Z,100669.53
2023-03-16T02:15:01.567Z,100664.53
2023-03-16T02:17:33.054Z,100636.66
2023-03-16T02:20:13.526Z,100583.03
2023-03-16T02:22:45.034Z,100623.16
2023-03-16T02:25:15.380Z,100607.66
2023-03-16T02:27:52.011Z,100609.63
2023-03-16T02:30:21.805Z,100599.44
2023-03-16T02:32:53.011Z,100598.63
2023-03-16T02:35:21.623Z,100598.34
2023-03-16T02:37:49.332Z,100588.00
2023-03-16T02:40:24.067Z,100588.81
2023-03-16T02:42:57.385Z,100568.06
2023-03-16T02:45:33.444Z,100568.28
2023-03-16T02:48:05.233Z,100570.56
2023-03-16T02:50:32.987Z,100565.41
2023-03-16T02:53:00.695Z,100561.19
2023-03-16T02:55:28.522Z,100548.53
2023-03-16T02:57:56.181Z,100525.00
2023-03-16T03:00:24.041Z,100513.97
2023-03-16T03:02:53.513Z,100500.66
2023-03-16T03:05:21.305Z,100486.63
2023-03-16T03:07:49.037Z,100473.22
2023-03-16T03:10:17.239Z,100469.63
2023-03-16T03:12:49.219Z,100461.09
2023-03-16T03:15:18.318Z,100455.47
2023-03-16T03:17:46.095Z,100450.91
2023-03-16T03:20:16.956Z,100441.19
2023-03-16T03:22:46.448Z,100433.44
2023-03-16T03:25:15.194Z,100408.56
2023-03-16T03:27:43.592Z,100412.63
2023-03-16T03:30:13.619Z,100392.06
2023-03-16T03:32:41.932Z,100377.38
2023-03-16T03:35:12.361Z,100371.19
2023-03-16T03:37:42.415Z,100355.69
2023-03-16T03:40:12.709Z,100329.31
2023-03-16T03:42:41.170Z,100330.59
2023-03-16T03:45:12.595Z,100314.28
2023-03-16T03:47:40.667Z,100306.38
2023-03-16T03:50:09.938Z,100301.78
2023-03-16T03:52:37.963Z,100283.25
2023-03-16T03:55:08.193Z,100267.38
2023-03-16T03:57:36.297Z,100252.31
2023-03-16T04:00:09.425Z,100217.69
2023-03-16T04:02:37.190Z,100226.16
2023-03-16T04:05:05.177Z,100215.44
2023-03-16T04:07:32.992Z,100199.59
2023-03-16T04:10:01.019Z,100190.38
2023-03-16T04:12:30.062Z,100176.50
2023-03-16T04:14:57.854Z,100173.78
2023-03-16T04:17:25.839Z,100158.28
2023-03-16T04:19:53.511Z,100152.13
2023-03-16T04:22:23.196Z,100144.84
2023-03-16T04:24:52.184Z,100120.31
2023-03-16T04:27:19.897Z,100109.19
2023-03-16T04:29:48.944Z,100107.22
2023-03-16T04:32:16.597Z,100098.41
2023-03-16T04:34:44.825Z,100093.34
2023-03-16T04:37:13.139Z,100088.53
2023-03-16T04:39:41.932Z,100094.31
2023-03-16T04:42:09.800Z,100082.06
2023-03-16T04:44:44.133Z,100076.22
2023-03-16T04:47:13.787Z,100056.03
2023-03-16T04:49:41.871Z,100056.72
2023-03-16T04:52:09.808Z,100059.16
2023-03-16T04:54:37.452Z,100059.00
2023-03-16T04:57:05.686Z,100058.19
2023-03-16T04:59:33.461Z,100064.00
2023-03-16T05:02:01.122Z,100060.13
2023-03-16T05:04:30.320Z,100052.38
2023-03-16T05:06:57.993Z,100046.91
2023-03-16T05:09:25.886Z,100057.25
2023-03-16T05:11:53.704Z,100054.66
2023-03-16T05:14:21.431Z,100060.19
2023-03-16T05:16:49.128Z,100068.75
2023-03-16T05:19:17.322Z,100063.22
2023-03-16T05:21:46.484Z,100066.47
2023-03-16T05:24:14.092Z,100063.06
2023-03-16T05:26:41.760Z,100062.09
2023-03-16T05:29:09.498Z,100061.13
2023-03-16T05:31:37.960Z,100060.13
2023-03-16T05:34:06.151Z,100051.91
2023-03-16T05:36:35.914Z,100047.41
2023-03-16T05:39:05.111Z,100035.13
2023-03-16T05:41:32.820Z,100034.63
2023-03-16T05:44:00.673Z,100025.56
2023-03-16T05:46:28.472Z,100017.16
2023-03-16T05:48:56.136Z,100003.94
2023-03-16T05:51:26.261Z,99992.94
2023-03-16T05:53:56.594Z,99975.31
2023-03-16T05:56:26.758Z,99978.03
2023-03-16T05:58:55.544Z,99967.09
2023-03-16T06:01:24.658Z,99967.25
2023-03-16T06:03:53.080Z,99962.75
2023-03-16T06:06:21.549Z,99958.69
2023-03-16T06:08:49.652Z,99951.75
2023-03-16T06:11:17.834Z,99942.56
2023-03-16T06:13:47.051Z,99942.06
2023-03-16T06:16:16.811Z,99939.34
2023-03-16T06:18:44.585Z,99926.72
2023-03-16T06:21:12.250Z,99920.94
2023-03-16T06:23:39.971Z,99915.09
2023-03-16T06:26:07.593Z,99922.72
2023-03-16T06:28:35.242Z,99924.63
2023-03-16T06:31:04.322Z,99904.63
2023-03-16T06:33:32.241Z,99904.47
2023-03-16T06:36:00.151Z,99904.94
2023-03-16T06:38:28.091Z,99901.22
2023-03-16T06:40:55.898Z,99876.34
2023-03-16T06:43:23.769Z,99901.56
2023-03-16T06:45:51.493Z,99896.03
2023-03-16T06:48:20.697Z,99886.50
2023-03-16T06:50:48.493Z,99893.00
2023-03-16T06:53:16.121Z,99889.28
2023-03-16T06:55:43.940Z,99881.50
2023-03-16T06:58:11.723Z,99879.88
2023-03-16T07:00:39.415Z,99863.41
2023-03-16T07:03:07.114Z,99863.75
2023-03-16T07:05:36.267Z,99848.22
2023-03-16T07:08:04.817Z,99858.09
2023-03-16T07:10:32.726Z,99860.66
2023-03-16T07:13:00.382Z,99873.09
2023-03-16T07:15:28.004Z,99858.88
2023-03-16T07:17:55.654Z,99864.69
2023-03-16T07:20:23.864Z,99868.25
2023-03-16T07:22:52.962Z,99877.78
2023-03-16T07:25:21.439Z,99863.56
2023-03-16T07:27:49.258Z,99882.16
2023-03-16T07:30:16.913Z,99850.81
2023-03-16T07:32:44.641Z,99884.75
2023-03-16T07:35:12.606Z,99878.13
2023-03-16T07:37:40.564Z,99888.63
2023-03-16T07:40:11.162Z,99885.72
2023-03-16T07:42:38.955Z,99890.72
2023-03-16T07:45:07.975Z,99901.06
2023-03-16T07:47:35.869Z,99897.34
2023-03-16T07:50:03.512Z,99898.00
2023-03-16T07:52:31.162Z,99885.88
2023-03-16T07:54:58.837Z,99858.72
2023-03-16T07:57:27.912Z,99887.31
2023-03-16T07:59:55.600Z,99871.13
2023-03-16T08:02:23.394Z,99862.56
2023-03-16T08:04:51.544Z,99848.47
2023-03-16T08:07:19.379Z,99836.31
2023-03-16T08:09:47.013Z,99831.47
2023-03-16T08:12:14.624Z,99839.50
2023-03-16T08:14:45.673Z,99827.69
2023-03-16T08:17:13.644Z,99836.59
2023-03-16T08:19:43.081Z,99848.69
2023-03-16T08:22:10.877Z,99846.09
2023-03-16T08:24:38.598Z,99860.97
2023-03-16T08:27:06.791Z,99875.69
2023-03-16T08:29:34.832Z,99886.31
2023-03-16T08:32:03.794Z,99890.19
2023-03-16T08:34:31.829Z,99913.50
2023-03-16T08:37:00.366Z,99931.56
2023-03-16T08:39:29.084Z,99948.72
2023-03-16T08:41:57.233Z,99956.28
2023-03-16T08:44:26.140Z,99980.25
2023-03-16T08:46:54.062Z,99995.28
2023-03-16T08:49:24.025Z,100002.38
2023-03-16T08:51:51.694Z,100023.44
2023-03-16T08:54:19.340Z,100035.44
2023-03-16T08:56:47.036Z,100042.34
2023-03-16T08:59:27.297Z,100060.66
2023-03-16T09:01:57.352Z,100070.34
2023-03-16T09:04:26.558Z,100071.47
2023-03-16T09:07:10.108Z,100093.97
2023-03-16T09:09:38.163Z,100101.22
2023-03-16T09:12:06.961Z,100117.09
2023-03-16T09:14:35.342Z,100127.94
2023-03-16T09:17:03.025Z,100134.88
2023-03-16T09:19:49.938Z,100147.84
2023-03-16T09:22:19.657Z,100154.00
2023-03-16T09:24:48.380Z,100161.94
2023-03-16T09:27:16.322Z,100163.19
2023-03-16T09:29:45.243Z,100168.25
2023-03-16T09:32:13.086Z,100194.19
2023-03-16T09:34:42.285Z,100195.59
2023-03-16T09:37:10.953Z,100209.22
2023-03-16T09:39:39.617Z,100211.44
2023-03-16T09:42:15.616Z,100221.63
2023-03-16T09:44:54.915Z,100227.50
2023-03-16T09:47:28.397Z,100233.50
2023-03-16T09:49:59.994Z,100205.41
2023-03-16T09:52:36.040Z,100236.22
2023-03-16T09:55:08.810Z,100254.72
2023-03-16T09:57:41.063Z,100267.56
2023-03-16T10:00:17.512Z,100277.44
2023-03-16T10:03:06.295Z,100296.53
2023-03-16T10:05:36.756Z,100307.00
2023-03-16T10:08:13.971Z,100342.56
2023-03-16T10:10:59.717Z,100346.56
2023-03-16T10:13:36.925Z,100354.19
2023-03-16T10:16:10.828Z,100387.81
2023-03-16T10:18:44.924Z,100376.94
2023-03-16T10:21:16.937Z,100396.03
2023-03-16T10:23:46.465Z,100395.38
2023-03-16T10:26:18.732Z,100391.31
2023-03-16T10:28:46.640Z,100413.72
2023-03-16T10:31:17.532Z,100448.25
2023-03-16T10:33:45.504Z,100468.19
2023-03-16T10:36:25.388Z,100478.06
2023-03-16T10:38:55.338Z,100488.53
2023-03-16T10:41:28.217Z,100493.53
2023-03-16T10:43:58.214Z,100503.78
2023-03-16T10:46:28.658Z,100469.75
2023-03-16T10:49:00.305Z,100513.88
2023-03-16T10:51:31.889Z,100516.59
2023-03-16T10:54:10.864Z,100533.22
2023-03-16T10:56:40.215Z,100536.28
2023-03-16T10:59:17.243Z,100530.72
2023-03-16T11:01:49.989Z,100569.50
2023-03-16T11:04:20.535Z,100558.47
2023-03-16T11:06:54.706Z,100568.78
2023-03-16T11:09:26.174Z,100555.22
2023-03-16T11:11:53.981Z,100529.16
2023-03-16T11:14:24.353Z,100558.28
2023-03-16T11:17:00.335Z,100553.34
2023-03-16T11:19:30.535Z,100551.00
2023-03-16T11:22:03.364Z,100551.00
2023-03-16T11:24:39.829Z,100518.34
2023-03-16T11:27:20.106Z,100551.38
2023-03-16T11:30:02.849Z,100538.25
2023-03-16T11:32:34.585Z,100524.47
2023-03-16T11:35:04.612Z,100547.88
2023-03-16T11:37:49.714Z,100568.91
2023-03-16T11:40:31.292Z,100570.72
2023-03-16T11:43:07.009Z,100585.13
2023-03-16T11:45:42.978Z,100594.00
2023-03-16T11:48:25.818Z,100592.09
2023-03-16T11:51:05.284Z,100619.81
2023-03-16T11:53:50.936Z,100628.19
2023-03-16T11:56:32.782Z,100626.91
2023-03-16T11:59:28.483Z,100647.63
2023-03-16T12:02:08.699Z,100651.84
2023-03-16T12:04:55.133Z,100685.53
2023-03-16T12:07:48.959Z,100681.63
2023-03-16T12:10:26.028Z,100706.78
2023-03-16T12:13:07.647Z,100725.50
2023-03-16T12:15:39.108Z,100747.53
2023-03-16T12:18:15.793Z,100776.41
2023-03-16T12:20:51.949Z,100770.56
2023-03-16T12:23:23.728Z,100805.19
2023-03-16T12:25:54.425Z,100816.00
2023-03-16T12:28:27.639Z,100812.91
2023-03-16T12:31:03.305Z,100806.13
2023-03-16T12:33:45.113Z,100826.38
2023-03-16T12:36:40.008Z,100829.03
2023-03-16T12:39:09.866Z,100824.09
2023-03-16T12:41:54.161Z,100813.19
2023-03-16T12:44:28.869Z,100824.75
2023-03-16T12:47:01.630Z,100800.13
2023-03-16T12:49:34.299Z,100824.03
2023-03-16T12:52:03.106Z,100813.63
2023-03-16T12:54:31.243Z,100812.31
2023-03-16T12:57:05.259Z,100824.50
2023-03-16T12:59:42.899Z,100814.19
2023-03-16T13:02:17.011Z,100828.31
2023-03-16T13:04:50.541Z,100844.75
2023-03-16T13:07:23.074Z,100845.13
2023-03-16T13:09:54.137Z,100856.56
2023-03-16T13:12:27.756Z,100864.25
2023-03-16T13:14:57.025Z,100851.78
2023-03-16T13:17:31.273Z,100857.59
2023-03-16T13:20:02.041Z,100867.53
2023-03-16T13:22:32.355Z,100875.72
2023-03-16T13:25:13.118Z,100872.84
2023-03-16T13:27:45.702Z,100861.63
2023-03-16T13:30:20.475Z,100876.13
2023-03-16T13:32:49.458Z,100861.53
2023-03-16T13:35:29.377Z,100871.75
2023-03-16T13:38:05.655Z,100870.44
2023-03-16T13:40:34.852Z,100878.25
2023-03-16T13:43:03.877Z,100872.38
2023-03-16T13:45:34.202Z,100899.09
2023-03-16T13:48:03.361Z,100913.00
2023-03-16T13:50:33.508Z,100922.94
2023-03-16T13:53:04.378Z,100931.13
2023-03-16T13:55:35.523Z,100932.44
2023-03-16T13:58:05.490Z,100929.75
2023-03-16T14:00:36.962Z,100940.22
2023-03-16T14:03:16.315Z,100943.91
2023-03-16T14:05:44.701Z,100961.00
2023-03-16T14:08:20.916Z,100956.75
2023-03-16T14:10:49.449Z,100962.88
2023-03-16T14:13:32.993Z,100958.25
2023-03-16T14:16:03.477Z,100968.72
2023-03-16T14:18:36.034Z,100966.78
2023-03-16T14:21:09.253Z,100950.09
2023-03-16T14:23:41.466Z,100935.78
2023-03-16T14:26:13.941Z,100944.56
2023-03-16T14:28:55.626Z,100936.63
2023-03-16T14:31:23.325Z,100942.50
2023-03-16T14:34:01.837Z,100929.00
2023-03-16T14:36:35.724Z,100930.41
2023-03-16T14:39:11.878Z,100918.06
2023-03-16T14:41:40.350Z,100934.06
2023-03-16T14:44:21.183Z,100907.53
2023-03-16T14:46:49.241Z,100929.19
2023-03-16T14:49:23.549Z,100929.38
2023-03-16T14:51:54.572Z,100911.38
2023-03-16T14:54:23.837Z,100908.41
2023-03-16T14:56:53.572Z,100904.97
2023-03-16T14:59:23.337Z,100902.53
2023-03-16T15:01:51.579Z,100907.19
2023-03-16T15:04:25.913Z,100908.19
2023-03-16T15:06:54.077Z,100891.22
2023-03-16T15:09:37.026Z,100902.28
2023-03-16T15:12:05.531Z,100884.06
2023-03-16T15:14:51.987Z,100886.44
2023-03-16T15:17:19.647Z,100879.38
2023-03-16T15:19:48.506Z,100871.72
2023-03-16T15:22:16.179Z,100871.03
2023-03-16T15:24:43.812Z,100843.84
2023-03-16T15:27:21.218Z,100859.66
2023-03-16T15:29:50.611Z,100857.44
2023-03-16T15:32:18.304Z,100868.75
2023-03-16T15:34:46.652Z,100876.63
2023-03-16T15:37:16.186Z,100872.41
2023-03-16T15:39:46.106Z,100863.69
2023-03-16T15:42:16.585Z,100836.16
2023-03-16T15:44:44.724Z,100854.03
2023-03-16T15:47:14.631Z,100846.56
2023-03-16T15:49:47.739Z,100856.50
2023-03-16T15:52:27.756Z,100837.94
2023-03-16T15:54:57.367Z,100847.03
2023-03-16T15:57:25.447Z,100831.75
2023-03-16T15:59:53.716Z,100829.31
2023-03-16T16:02:29.536Z,100837.59
2023-03-16T16:04:57.734Z,100821.63
2023-03-16T16:07:25.468Z,100837.75
2023-03-16T16:09:53.156Z,100835.09
2023-03-16T16:12:26.693Z,100840.09
2023-03-16T16:14:56.412Z,100830.41
2023-03-16T16:17:43.866Z,100827.03
2023-03-16T16:20:22.803Z,100818.72
2023-03-16T16:22:51.976Z,100822.34
2023-03-16T16:25:21.352Z,100829.59
2023-03-16T16:27:49.269Z,100820.19
2023-03-16T16:30:24.143Z,100819.16
2023-03-16T16:32:52.205Z,100808.09
2023-03-16T16:35:24.049Z,100821.75
2023-03-16T16:37:51.872Z,100800.56
2023-03-16T16:40:21.870Z,100801.38
2023-03-16T16:42:51.165Z,100806.19
2023-03-16T16:45:21.209Z,100819.88
2023-03-16T16:47:52.208Z,100800.00
2023-03-16T16:50:25.110Z,100803.00
2023-03-16T16:52:54.025Z,100805.00
2023-03-16T16:55:23.237Z,100803.28
2023-03-16T16:57:55.210Z,100802.28
2023-03-16T17:00:25.050Z,100803.84
2023-03-16T17:02:54.207Z,100779.66
2023-03-16T17:05:25.640Z,100786.44
2023-03-16T17:07:53.867Z,100779.56
2023-03-16T17:10:23.310Z,100757.97
2023-03-16T17:12:52.901Z,100777.84
2023-03-16T17:15:27.739Z,100779.59
2023-03-16T17:18:02.283Z,100784.41
2023-03-16T17:20:31.586Z,100777.47
2023-03-16T17:23:00.114Z,100778.19
2023-03-16T17:25:30.247Z,100771.47
2023-03-16T17:27:58.894Z,100779.38
2023-03-16T17:30:28.926Z,100774.28
2023-03-16T17:33:02.637Z,100756.03
2023-03-16T17:35:32.362Z,100770.72
2023-03-16T17:38:00.149Z,100758.13
2023-03-16T17:40:28.548Z,100754.03
2023-03-16T17:42:56.882Z,100756.38
2023-03-16T17:45:27.786Z,100742.78
2023-03-16T17:47:56.351Z,100754.69
2023-03-16T17:50:29.041Z,100742.56
2023-03-16T17:52:58.312Z,100746.59
2023-03-16T17:55:26.446Z,100741.59
2023-03-16T17:57:56.515Z,100748.81
2023-03-16T18:00:28.688Z,100736.22
2023-03-16T18:02:58.665Z,100746.88
2023-03-16T18:05:28.868Z,100746.13
2023-03-16T18:07:59.982Z,100725.00
2023-03-16T18:10:29.914Z,100745.72
2023-03-16T18:13:00.691Z,100747.88
2023-03-16T18:15:32.332Z,100755.88
2023-03-16T18:18:01.502Z,100754.91
2023-03-16T18:20:32.934Z,100748.78
2023-03-16T18:23:04.856Z,100737.09
2023-03-16T18:25:38.996Z,100726.38
2023-03-16T18:28:08.230Z,100715.84
2023-03-16T18:30:37.811Z,100715.84
2023-03-16T18:33:07.962Z,100697.56
2023-03-16T18:35:38.302Z,100699.28
2023-03-16T18:38:17.840Z,100699.47
2023-03-16T18:40:45.580Z,100715.38
2023-03-16T18:43:16.285Z,100706.03
2023-03-16T18:45:45.449Z,100692.81
2023-03-16T18:48:22.187Z,100685.69
2023-03-16T18:50:49.990Z,100692.00
2023-03-16T18:53:19.863Z,100687.25
2023-03-16T18:55:47.642Z,100686.25
2023-03-16T18:58:17.749Z,100673.91
2023-03-16T19:00:49.416Z,100664.38
2023-03-16T19:03:24.461Z,100668.53
2023-03-16T19:05:53.137Z,100670.94
2023-03-16T19:08:22.623Z,100672.94
2023-03-16T19:10:53.841Z,100663.81
2023-03-16T19:13:23.439Z,100648.00
2023-03-16T19:15:52.169Z,100659.25
2023-03-16T19:18:19.718Z,100651.34
2023-03-16T19:20:50.303Z,100640.16
2023-03-16T19:23:21.885Z,100632.91
2023-03-16T19:25:51.983Z,100620.03
2023-03-16T19:28:26.049Z,100620.84
2023-03-16T19:30:53.696Z,100626.25
2023-03-16T19:33:23.277Z,100611.47
2023-03-16T19:35:52.717Z,100591.47
2023-03-16T19:38:21.334Z,100583.59
2023-03-16T19:40:54.341Z,100567.38
2023-03-16T19:43:23.376Z,100549.75
2023-03-16T19:45:53.326Z,100554.97
2023-03-16T19:48:28.099Z,100557.41
2023-03-16T19:50:56.065Z,100553.56
2023-03-16T19:53:24.257Z,100550.22
2023-03-16T19:55:54.446Z,100534.75
2023-03-16T19:58:30.398Z,100540.94
2023-03-16T20:00:58.818Z,100519.84
2023-03-16T20:03:27.365Z,100516.41
2023-03-16T20:05:55.669Z,100504.72
2023-03-16T20:08:26.262Z,100500.97
2023-03-16T20:11:05.733Z,100500.16
2023-03-16T20:13:34.473Z,100490.88
2023-03-16T20:16:02.306Z,100507.16
2023-03-16T20:18:30.950Z,100523.88
2023-03-16T20:20:58.649Z,100531.44
2023-03-16T20:23:28.328Z,100526.84
2023-03-16T20:26:02.073Z,100511.72
2023-03-16T20:28:35.394Z,100519.47
2023-03-16T20:31:04.195Z,100515.59
2023-03-16T20:33:33.324Z,100499.78
2023-03-16T20:36:01.190Z,100491.50
2023-03-16T20:38:28.912Z,100490.44
2023-03-16T20:40:58.116Z,100486.41
2023-03-16T20:43:27.538Z,100482.97
2023-03-16T20:45:57.552Z,100481.66
2023-03-16T20:48:26.030Z,100486.94
2023-03-16T20:50:54.444Z,100498.50
2023-03-16T20:53:22.880Z,100498.09
2023-03-16T20:55:51.409Z,100492.41
2023-03-16T20:58:22.451Z,100483.88
2023-03-16T21:00:51.278Z,100484.84
2023-03-16T21:03:22.316Z,100488.38
2023-03-16T21:05:50.765Z,100486.66
2023-03-16T21:08:19.194Z,100497.47
2023-03-16T21:10:49.687Z,100488.19
2023-03-16T21:13:22.773Z,100475.34
2023-03-16T21:15:51.260Z,100475.34
2023-03-16T21:18:21.554Z,100466.25
2023-03-16T21:20:51.238Z,100468.41
2023-03-16T21:23:21.299Z,100455.66
2023-03-16T21:25:51.799Z,100457.44
2023-03-16T21:28:22.030Z,100468.44
2023-03-16T21:30:52.002Z,100447.66
2023-03-16T21:33:25.578Z,100455.31
2023-03-16T21:35:53.363Z,100455.66
2023-03-16T21:38:21.964Z,100444.78
2023-03-16T21:40:49.634Z,100467.97
2023-03-16T21:43:17.397Z,100470.75
2023-03-16T21:45:47.710Z,100469.66
2023-03-16T21:48:18.549Z,100465.25
2023-03-16T21:50:47.939Z,100455.63
2023-03-16T21:53:23.658Z,100434.34
2023-03-16T21:55:52.243Z,100449.72
2023-03-16T21:58:20.558Z,100437.31
2023-03-16T22:00:50.972Z,100433.00
2023-03-16T22:03:25.389Z,100430.75
2023-03-16T22:05:54.227Z,100427.19
2023-03-16T22:08:23.189Z,100419.38
2023-03-16T22:10:51.106Z,100427.41
2023-03-16T22:13:20.376Z,100420.97
2023-03-16T22:15:52.011Z,100426.81
2023-03-16T22:18:28.428Z,100429.75
2023-03-16T22:20:57.438Z,100430.91
2023-03-16T22:23:31.856Z,100437.75
2023-03-16T22:25:59.746Z,100416.78
2023-03-16T22:28:27.759Z,100416.44
2023-03-16T22:30:59.544Z,100418.88
2023-03-16T22:33:29.910Z,100418.41
2023-03-16T22:36:02.173Z,100427.50
2023-03-16T22:38:30.121Z,100417.91
2023-03-16T22:40:57.870Z,100404.41
2023-03-16T22:43:31.160Z,100407.19
2023-03-16T22:46:00.459Z,100421.03
2023-03-16T22:48:30.015Z,100424.09
2023-03-16T22:51:01.364Z,100411.34
2023-03-16T22:53:37.684Z,100412.88
2023-03-16T22:56:06.782Z,100414.66
2023-03-16T22:58:37.549Z,100403.19
2023-03-16T23:01:17.141Z,100414.19
2023-03-16T23:03:45.925Z,100423.38
2023-03-16T23:06:18.111Z,100388.97
2023-03-16T23:08:45.814Z,100406.75
2023-03-16T23:11:16.702Z,100413.13
2023-03-16T23:13:44.649Z,100410.69
2023-03-16T23:16:20.136Z,100413.75
2023-03-16T23:18:48.039Z,100397.16
2023-03-16T23:21:17.565Z,100388.38
2023-03-16T23:23:53.968Z,100372.63
2023-03-16T23:26:30.208Z,100386.63
2023-03-16T23:28:58.397Z,100388.25
2023-03-16T23:31:28.394Z,100393.53
2023-03-16T23:33:56.554Z,100401.34
2023-03-16T23:36:25.769Z,100398.44
2023-03-16T23:38:54.221Z,100394.69
2023-03-16T23:41:24.278Z,100391.63
2023-03-16T23:43:53.534Z,100410.81
2023-03-16T23:46:23.306Z,100408.22
2023-03-16T23:48:54.376Z,100416.03
2023-03-16T23:51:25.822Z,100398.97
2023-03-16T23:53:53.558Z,100383.94
2023-03-16T23:56:21.618Z,100412.06
2023-03-16T23:58:50.125Z,100398.78
